Time,TemperatureF,DewpointF,PressureIn,WindDirection,WindDirectionDegrees,WindSpeedMPH,WindSpeedGustMPH,Humidity,HourlyPrecipIn,Conditions,Clouds,dailyrainin,SolarRadiationWatts/m^2,SoftwareType,DateUTC
2013-02-08 00:12:00,31.1,26.0,30.37,North,9,4.0,6.0,80,0.00,,,0.00,0,weatherlink.com 1.10,2013-02-08 07:12:00,
2013-02-08 00:27:00,30.7,26.0,30.37,NNE,33,4.0,5.0,81,0.00,,,0.00,0,weatherlink.com 1.10,2013-02-08 07:27:00,
2013-02-08 00:42:00,30.3,25.0,30.36,NE,43,4.0,5.0,81,0.00,,,0.00,0,weatherlink.com 1.10,2013-02-08 07:42:00,
2013-02-08 00:57:00,31.0,26.0,30.36,North,355,3.0,6.0,80,0.00,,,0.00,0,weatherlink.com 1.10,2013-02-08 07:57:00,
2013-02-08 01:12:00,29.9,26.0,30.36,NE,38,3.0,4.0,85,0.00,,,0.00,0,weatherlink.com 1.10,2013-02-08 08:12:00,
2013-02-08 01:27:00,29.5,26.0,30.36,ENE,75,1.0,3.0,87,0.00,,,0.00,0,weatherlink.com 1.10,2013-02-08 08:27:00,
2013-02-08 01:42:00,29.8,26.0,30.36,NE,47,3.0,4.0,86,0.00,,,0.00,0,weatherlink.com 1.10,2013-02-08 08:42:00,
2013-02-08 01:57:00,30.0,26.0,30.36,NE,40,5.0,8.0,84,0.00,,,0.00,0,weatherlink.com 1.10,2013-02-08 08:57:00,
2013-02-08 02:12:00,30.1,26.0,30.36,NE,46,7.0,8.0,84,0.00,,,0.00,0,weatherlink.com 1.10,2013-02-08 09:12:00,
2013-02-08 02:27:00,30.4,26.0,30.38,NNE,25,3.0,7.0,83,0.00,,,0.00,0,weatherlink.com 1.10,2013-02-08 09:27:00,
2013-02-08 02:42:00,30.7,26.0,30.38,NNE,25,1.0,3.0,82,0.00,,,0.00,0,weatherlink.com 1.10,2013-02-08 09:42:00,
2013-02-08 02:57:00,30.3,26.0,30.39,NNW,336,1.0,3.0,83,0.00,,,0.00,0,weatherlink.com 1.10,2013-02-08 09:57:00,
2013-02-08 03:12:00,29.1,25.0,30.39,SW,221,0.0,5.0,85,0.00,,,0.00,0,weatherlink.com 1.10,2013-02-08 10:12:00,
2013-02-08 03:27:00,28.6,26.0,30.39,SSW,209,0.0,4.0,88,0.00,,,0.00,0,weatherlink.com 1.10,2013-02-08 10:27:00,
2013-02-08 03:42:00,28.8,25.0,30.39,SW,216,2.0,3.0,86,0.00,,,0.00,0,weatherlink.com 1.10,2013-02-08 10:42:00,
2013-02-08 03:57:00,29.1,25.0,30.39,SW,216,0.0,2.0,86,0.00,,,0.00,0,weatherlink.com 1.10,2013-02-08 10:57:00,
2013-02-08 04:12:00,29.3,26.0,30.39,East,80,0.0,4.0,87,0.00,,,0.00,0,weatherlink.com 1.10,2013-02-08 11:12:00,
2013-02-08 04:27:00,29.2,25.0,30.39,WNW,283,2.0,3.0,84,0.00,,,0.00,0,weatherlink.com 1.10,2013-02-08 11:27:00,
2013-02-08 04:42:00,29.1,25.0,30.39,East,82,5.0,7.0,86,0.00,,,0.00,0,weatherlink.com 1.10,2013-02-08 11:42:00,
2013-02-08 04:57:00,29.6,26.0,30.39,SW,233,0.0,3.0,86,0.00,,,0.00,0,weatherlink.com 1.10,2013-02-08 11:57:00,
2013-02-08 05:12:00,28.5,25.0,30.39,North,355,0.0,5.0,86,0.00,,,0.00,0,weatherlink.com 1.10,2013-02-08 12:12:00,
2013-02-08 05:27:00,29.0,26.0,30.39,NE,47,2.0,3.0,88,0.00,,,0.00,0,weatherlink.com 1.10,2013-02-08 12:27:00,
2013-02-08 05:42:00,27.8,25.0,30.39,NE,39,5.0,6.0,89,0.00,,,0.00,0,weatherlink.com 1.10,2013-02-08 12:42:00,
2013-02-08 05:57:00,27.9,25.0,30.39,NNE,19,4.0,6.0,90,0.00,,,0.00,0,weatherlink.com 1.10,2013-02-08 12:57:00,
2013-02-08 06:13:00,28.1,26.0,30.39,NE,36,4.0,5.0,90,0.00,,,0.00,0,weatherlink.com 1.10,2013-02-08 13:13:00,
2013-02-08 06:28:00,29.0,27.0,30.39,NNE,28,3.0,5.0,90,0.00,,,0.00,0,weatherlink.com 1.10,2013-02-08 13:28:00,
2013-02-08 06:43:00,29.8,27.0,30.39,NNE,26,2.0,6.0,88,0.00,,,0.00,0,weatherlink.com 1.10,2013-02-08 13:43:00,
2013-02-08 06:58:00,29.0,26.0,30.40,NNE,20,0.0,3.0,87,0.00,,,0.00,0,weatherlink.com 1.10,2013-02-08 13:58:00,
2013-02-08 07:13:00,27.1,25.0,30.40,South,173,2.0,4.0,91,0.00,,,0.00,0,weatherlink.com 1.10,2013-02-08 14:13:00,
2013-02-08 07:28:00,27.5,26.0,30.41,South,171,1.0,5.0,92,0.00,,,0.00,0,weatherlink.com 1.10,2013-02-08 14:28:00,
2013-02-08 07:43:00,27.4,25.0,30.41,South,176,2.0,4.0,92,0.00,,,0.00,0,weatherlink.com 1.10,2013-02-08 14:43:00,
2013-02-08 07:58:00,27.5,26.0,30.41,South,176,0.0,3.0,92,0.00,,,0.00,7,weatherlink.com 1.10,2013-02-08 14:58:00,
2013-02-08 08:13:00,27.6,25.0,30.42,South,176,0.0,0.0,91,0.00,,,0.00,21,weatherlink.com 1.10,2013-02-08 15:13:00,
2013-02-08 08:28:00,27.9,26.0,30.42,South,176,0.0,1.0,92,0.00,,,0.00,33,weatherlink.com 1.10,2013-02-08 15:28:00,
2013-02-08 08:43:00,28.2,26.0,30.43,SE,146,1.0,3.0,92,0.00,,,0.00,63,weatherlink.com 1.10,2013-02-08 15:43:00,
2013-02-08 08:58:00,28.2,26.0,30.43,SE,132,2.0,3.0,92,0.00,,,0.00,86,weatherlink.com 1.10,2013-02-08 15:58:00,
2013-02-08 09:13:00,28.4,26.0,30.43,NNE,21,2.0,3.0,92,0.00,,,0.00,90,weatherlink.com 1.10,2013-02-08 16:13:00,
2013-02-08 09:28:00,28.2,26.0,30.44,NNE,21,1.0,3.0,92,0.00,,,0.00,56,weatherlink.com 1.10,2013-02-08 16:28:00,
2013-02-08 09:43:00,28.3,26.0,30.44,NNE,21,0.0,1.0,92,0.00,,,0.00,88,weatherlink.com 1.10,2013-02-08 16:43:00,
2013-02-08 09:58:00,29.0,27.0,30.43,NNE,21,0.0,2.0,92,0.00,,,0.00,127,weatherlink.com 1.10,2013-02-08 16:58:00,
2013-02-08 10:13:00,29.2,27.0,30.43,NNE,21,0.0,2.0,91,0.00,,,0.00,163,weatherlink.com 1.10,2013-02-08 17:13:00,
2013-02-08 10:28:00,29.5,28.0,30.43,NNE,16,2.0,4.0,92,0.00,,,0.00,179,weatherlink.com 1.10,2013-02-08 17:28:00,
2013-02-08 10:43:00,31.2,29.0,30.43,NNW,343,5.0,7.0,91,0.00,,,0.00,336,weatherlink.com 1.10,2013-02-08 17:43:00,
2013-02-08 10:58:00,32.1,29.0,30.42,West,267,3.0,6.0,89,0.00,,,0.00,404,weatherlink.com 1.10,2013-02-08 17:58:00,
2013-02-08 11:13:00,31.6,29.0,30.42,SSW,212,0.0,5.0,89,0.00,,,0.00,399,weatherlink.com 1.10,2013-02-08 18:13:00,
2013-02-08 11:28:00,34.0,29.0,30.41,NNW,348,7.0,7.0,83,0.00,,,0.00,454,weatherlink.com 1.10,2013-02-08 18:28:00,
2013-02-08 11:43:00,34.9,29.0,30.41,North,355,6.0,11.0,79,0.00,,,0.00,476,weatherlink.com 1.10,2013-02-08 18:43:00,
2013-02-08 11:58:00,35.8,29.0,30.40,North,350,9.0,12.0,76,0.00,,,0.00,494,weatherlink.com 1.10,2013-02-08 18:58:00,
2013-02-08 12:13:00,35.8,29.0,30.40,North,11,11.0,15.0,76,0.00,,,0.00,485,weatherlink.com 1.10,2013-02-08 19:13:00,
2013-02-08 12:28:00,36.0,29.0,30.39,NNW,347,11.0,15.0,75,0.00,,,0.00,494,weatherlink.com 1.10,2013-02-08 19:28:00,
2013-02-08 12:43:00,36.4,28.0,30.38,NNE,15,6.0,15.0,72,0.00,,,0.00,504,weatherlink.com 1.10,2013-02-08 19:43:00,
2013-02-08 12:58:00,36.8,28.0,30.38,North,11,9.0,14.0,71,0.00,,,0.00,527,weatherlink.com 1.10,2013-02-08 19:58:00,
2013-02-08 13:14:00,36.9,28.0,30.37,NNE,19,13.0,16.0,70,0.00,,,0.00,192,weatherlink.com 1.10,2013-02-08 20:14:00,
2013-02-08 13:29:00,37.2,28.0,30.37,North,355,13.0,18.0,70,0.00,,,0.00,543,weatherlink.com 1.10,2013-02-08 20:29:00,
2013-02-08 13:44:00,37.5,28.0,30.36,NNE,19,19.0,20.0,68,0.00,,,0.00,679,weatherlink.com 1.10,2013-02-08 20:44:00,
2013-02-08 13:59:00,37.3,28.0,30.36,NNE,17,18.0,19.0,68,0.00,,,0.00,272,weatherlink.com 1.10,2013-02-08 20:59:00,
2013-02-08 14:14:00,36.9,28.0,30.36,North,360,15.0,22.0,69,0.00,,,0.00,253,weatherlink.com 1.10,2013-02-08 21:14:00,
2013-02-08 14:29:00,37.5,28.0,30.35,North,5,20.0,23.0,68,0.00,,,0.00,520,weatherlink.com 1.10,2013-02-08 21:29:00,
2013-02-08 14:44:00,37.4,28.0,30.34,NNE,19,20.0,23.0,69,0.00,,,0.00,482,weatherlink.com 1.10,2013-02-08 21:44:00,
2013-02-08 14:59:00,36.4,27.0,30.35,NNE,15,20.0,24.0,70,0.00,,,0.00,260,weatherlink.com 1.10,2013-02-08 21:59:00,
2013-02-08 15:14:00,36.0,28.0,30.35,North,10,18.0,22.0,72,0.00,,,0.00,121,weatherlink.com 1.10,2013-02-08 22:14:00,
2013-02-08 15:29:00,35.9,28.0,30.35,NNE,13,18.0,21.0,72,0.00,,,0.00,111,weatherlink.com 1.10,2013-02-08 22:29:00,
2013-02-08 15:44:00,36.1,28.0,30.35,North,5,18.0,20.0,71,0.00,,,0.00,102,weatherlink.com 1.10,2013-02-08 22:44:00,
2013-02-08 15:59:00,36.2,27.0,30.35,NNE,13,15.0,20.0,70,0.00,,,0.00,91,weatherlink.com 1.10,2013-02-08 22:59:00,
2013-02-08 16:14:00,36.2,27.0,30.35,North,11,16.0,20.0,70,0.00,,,0.00,69,weatherlink.com 1.10,2013-02-08 23:14:00,
2013-02-08 16:29:00,36.4,27.0,30.35,North,360,16.0,19.0,70,0.00,,,0.00,83,weatherlink.com 1.10,2013-02-08 23:29:00,
2013-02-08 16:44:00,35.9,28.0,30.35,North,11,14.0,18.0,72,0.00,,,0.00,44,weatherlink.com 1.10,2013-02-08 23:44:00,
2013-02-08 16:59:00,35.9,27.0,30.35,NNE,15,12.0,16.0,71,0.00,,,0.00,37,weatherlink.com 1.10,2013-02-08 23:59:00,
2013-02-08 17:14:00,35.9,27.0,30.36,NNE,27,14.0,17.0,71,0.00,,,0.00,26,weatherlink.com 1.10,2013-02-09 00:14:00,
2013-02-08 17:29:00,35.7,27.0,30.36,NNE,31,12.0,15.0,71,0.00,,,0.00,18,weatherlink.com 1.10,2013-02-09 00:29:00,
2013-02-08 17:44:00,35.4,27.0,30.36,NNE,30,12.0,15.0,71,0.00,,,0.00,5,weatherlink.com 1.10,2013-02-09 00:44:00,
2013-02-08 17:59:00,35.0,27.0,30.36,NNE,22,12.0,15.0,73,0.00,,,0.00,0,weatherlink.com 1.10,2013-02-09 00:59:00,
2013-02-08 18:14:00,34.8,28.0,30.36,NNE,16,11.0,14.0,75,0.00,,,0.00,0,weatherlink.com 1.10,2013-02-09 01:14:00,
2013-02-08 18:29:00,34.7,28.0,30.36,NNE,16,11.0,12.0,75,0.00,,,0.00,0,weatherlink.com 1.10,2013-02-09 01:29:00,
2013-02-08 18:44:00,34.6,27.0,30.36,NE,36,10.0,10.0,75,0.00,,,0.00,0,weatherlink.com 1.10,2013-02-09 01:44:00,
2013-02-08 18:59:00,35.2,27.0,30.36,NE,36,9.0,12.0,72,0.00,,,0.00,0,weatherlink.com 1.10,2013-02-09 01:59:00,
2013-02-08 19:14:00,35.2,27.0,30.36,NE,36,9.0,13.0,72,0.00,,,0.00,0,weatherlink.com 1.10,2013-02-09 02:14:00,
2013-02-08 19:29:00,35.5,27.0,30.36,NNE,32,10.0,12.0,71,0.00,,,0.00,0,weatherlink.com 1.10,2013-02-09 02:29:00,
2013-02-08 19:44:00,35.6,27.0,30.36,NE,36,10.0,14.0,70,0.00,,,0.00,0,weatherlink.com 1.10,2013-02-09 02:44:00,
2013-02-08 19:59:00,35.5,27.0,30.36,NNE,30,7.0,12.0,70,0.00,,,0.00,0,weatherlink.com 1.10,2013-02-09 02:59:00,
2013-02-08 20:14:00,35.4,27.0,30.36,NNE,27,8.0,8.0,70,0.00,,,0.00,0,weatherlink.com 1.10,2013-02-09 03:14:00,
2013-02-08 20:29:00,35.4,26.0,30.36,NE,34,8.0,10.0,69,0.00,,,0.00,0,weatherlink.com 1.10,2013-02-09 03:29:00,
2013-02-08 20:44:00,35.3,26.0,30.36,NNE,26,6.0,10.0,69,0.00,,,0.00,0,weatherlink.com 1.10,2013-02-09 03:44:00,
2013-02-08 20:59:00,35.2,26.0,30.36,NE,39,7.0,10.0,69,0.00,,,0.00,0,weatherlink.com 1.10,2013-02-09 03:59:00,
2013-02-08 21:14:00,35.1,26.0,30.37,NNE,32,7.0,9.0,70,0.00,,,0.00,0,weatherlink.com 1.10,2013-02-09 04:14:00,
2013-02-08 21:29:00,35.0,26.0,30.37,NNE,15,10.0,13.0,70,0.00,,,0.00,0,weatherlink.com 1.10,2013-02-09 04:29:00,
2013-02-08 21:44:00,34.5,26.0,30.37,NNE,12,8.0,13.0,71,0.00,,,0.00,0,weatherlink.com 1.10,2013-02-09 04:44:00,
2013-02-08 21:59:00,33.9,26.0,30.37,North,11,9.0,12.0,74,0.00,,,0.00,0,weatherlink.com 1.10,2013-02-09 04:59:00,
2013-02-08 22:14:00,33.7,27.0,30.38,NNE,13,9.0,10.0,76,0.00,,,0.00,0,weatherlink.com 1.10,2013-02-09 05:14:00,
2013-02-08 22:29:00,33.5,26.0,30.38,NNE,13,11.0,12.0,75,0.00,,,0.00,0,weatherlink.com 1.10,2013-02-09 05:29:00,
2013-02-08 22:44:00,33.6,25.0,30.38,NNE,15,14.0,16.0,72,0.00,,,0.00,0,weatherlink.com 1.10,2013-02-09 05:44:00,
2013-02-08 22:59:00,33.5,25.0,30.37,NNE,32,15.0,17.0,71,0.00,,,0.00,0,weatherlink.com 1.10,2013-02-09 05:59:00,
2013-02-08 23:14:00,33.5,25.0,30.37,NNE,31,11.0,15.0,70,0.00,,,0.00,0,weatherlink.com 1.10,2013-02-09 06:14:00,
2013-02-08 23:29:00,33.3,25.0,30.37,NE,39,13.0,15.0,71,0.00,,,0.00,0,weatherlink.com 1.10,2013-02-09 06:29:00,
2013-02-08 23:44:00,33.2,24.0,30.37,NE,48,16.0,20.0,70,0.00,,,0.00,0,weatherlink.com 1.10,2013-02-09 06:44:00,
2013-02-08 23:59:00,33.3,24.0,30.37,NNE,22,13.0,18.0,70,0.00,,,0.00,0,weatherlink.com 1.10,2013-02-09 06:59:00,